• Join FlightAware (Why Join?)
  • Login
  • US Flag 
01:06AM EST


 

Airport Tracker/Info


-or-


 

Live Flight TrackerFlight Track Log ✈ N75AW ✈ 24-Jul-2013 ✈ MYEH / ELH - KAPF

Flight Track Log - Related Links

Times and Time Zones

All times are in EDT time to prevent confusion due to time zone crossing. See the N75AW flight status page for this flight to view local times or setup timezone preferences in your user account.

Time Position Orientation Groundspeed Altitude Reporting Facility
EDT Latitude Longitude Course Direction KTS MPH feet Rate Location/Type
09:48AM 25.4783 -76.9969 270° West 271 312 12,300  Level Miami Center
09:49AM 25.4783 -77.0544 270° West 236 272 14,300 2,040 Climbing Miami Center
09:50AM 25.4803 -77.1097 272° West 200 230 16,400 1,920 Climbing Miami Center
09:51AM 25.4803 -77.1625 270° West 188 216 18,200 1,800 Climbing Miami Center
09:52AM 25.4822 -77.2156 272° West 178 205 20,000 1,680 Climbing Miami Center
09:53AM 25.4819 -77.2708 270° West 178 205 21,600 1,020 Climbing Miami Center
09:54AM 25.4839 -77.3283 272° West 178 205 22,100 240 Climbing Miami Center
09:55AM 25.4858 -77.4044 272° West 212 244 22,100  Level Miami Center
09:56AM 25.4897 -77.4781 273° West 250 288 22,100  Level Miami Center
09:57AM 25.4892 -77.5608 270° West 270 311 22,100  Level Miami Center
09:58AM 25.4889 -77.6461 270° West 275 316 22,100  Level Miami Center
09:59AM 25.4883 -77.7314 270° West 275 316 22,100 -60 Level Miami Center
10:00AM 25.4900 -77.8142 271° West 275 316 22,000 -60 Descending Miami Center
10:01AM 25.4914 -77.8972 271° West 270 311 22,000  Level Miami Center
10:02AM 25.4931 -77.9800 271° West 270 311 22,100  Climbing Miami Center
10:03AM 25.4922 -78.0653 269° West 270 311 22,100  Level Miami Center
10:04AM 25.4958 -78.1481 273° West 270 311 22,100  Level Miami Center
10:05AM 25.4950 -78.2333 269° West 270 311 22,100  Level Miami Center
10:06AM 25.4983 -78.3186 272° West 275 316 22,100  Level Miami Center
10:07AM 25.4975 -78.4036 269° West 275 316 22,100  Level Miami Center
10:08AM 25.5008 -78.4867 273° West 275 316 22,100  Level Miami Center
10:09AM 25.5019 -78.5786 271° West 269 310 22,100  Level Miami Center
10:10AM 25.4986 -78.6617 267° West 269 310 22,100  Level Miami Center
10:11AM 25.4997 -78.7467 271° West 274 315 22,100  Level Miami Center
10:12AM 25.4986 -78.8319 269° West 274 315 22,100  Level Miami Center
10:13AM 25.5017 -78.9147 272° West 274 315 22,100  Level Miami Center
10:15AM 25.5017 -79.0178 270° West  Level FlightAware Approximate
10:15AM 25.5036 -79.0692 270° West 275 316 22,100  Level Miami Center
10:16AM 25.5067 -79.1475 272° West 275 316 22,100  Level Miami Center
10:17AM 25.5053 -79.2372 269° West 275 316 22,100  Level Miami Center
10:18AM 25.5039 -79.3225 269° West 275 316 22,100  Level Miami Center
10:19AM 25.5044 -79.4053 270° West 275 316 22,100  Level Miami Center
10:20AM 25.5050 -79.4881 270° West 275 316 22,100  Level Miami Center
10:21AM 25.5056 -79.5733 270° West 275 316 22,100  Level Miami Center
10:22AM 25.5042 -79.6561 269° West 275 316 22,100  Level Miami Center
10:23AM 25.5044 -79.7414 270° West 275 316 22,100  Level Miami Center
10:24AM 25.5031 -79.8242 269° West 275 316 22,100  Level Miami Center
10:25AM 25.5011 -79.9069 269° West 275 316 22,100  Level Miami Center
10:26AM 25.5017 -79.9922 270° West 275 316 22,100  Level Miami Center
10:27AM 25.5019 -80.0750 270° West 275 316 22,100  Level Miami Center
10:28AM 25.5019 -80.1603 270° West 275 316 22,100  Level Miami Center
10:29AM 25.5022 -80.2431 270° West 275 316 22,100  Level Miami Center
10:30AM 25.5025 -80.3261 270° West 270 311 22,100  Level Miami Center
10:31AM 25.5003 -80.4133 268° West 270 311 22,100 -360 Level Miami Center
10:32AM 25.5000 -80.5100 270° West 275 316 21,400 -660 Descending Miami Center
10:33AM 25.5000 -80.5906 270° West 290 334 20,800 -600 Descending Miami Center
10:34AM 25.4997 -80.6894 270° West 296 341 20,200 -600 Descending Miami Center
10:35AM 25.4994 -80.7722 270° West 296 341 19,700 -540 Descending Miami Center
10:36AM 25.4992 -80.8622 270° West 296 341 19,200 -360 Descending Miami Center
10:37AM 25.4989 -80.9494 270° West 290 334 19,000 -480 Descending Miami Center
10:38AM 25.4986 -81.0369 270° West 290 334 18,300 -900 Descending Miami Center
10:39AM 25.4981 -81.1267 270° West 290 334 17,300 -1,260 Descending Miami Center
10:40AM 25.4975 -81.2211 270° West 290 334 15,800 -1,500 Descending Miami Center
10:41AM 25.4925 -81.3106 266° West 296 341 14,300 -1,500 Descending Miami Center
10:42AM 25.4900 -81.3981 268° West 290 334 12,900 -1,500 Descending Miami Center
10:43AM 25.4872 -81.4831 268° West 290 334 11,400 -1,500 Descending Miami Center
10:44AM 25.4806 -81.5631 265° West 280 322 10,000 -1,500 Descending Miami Center
10:45AM 25.4778 -81.6528 268° West 274 315 8,500 -1,440 Descending Miami Center
10:46AM 25.4878 -81.7244 279° West 268 308 7,200 -1,380 Descending Miami Center
10:47AM 25.5564 -81.7389 349° North 211 243 5,800 -1,440 Descending Miami Center
10:48AM 25.6250 -81.7439 356° North 210 242 4,400 -840 Descending Miami Center
10:49AM 25.6875 -81.7464 358° North 234 269 4,200 -180 Descending Miami Center
10:50AM 25.7503 -81.7489 358° North 234 269 4,100 -60 Descending Miami Center
10:51AM 25.8111 -81.7400 North 228 262 4,100 -480 Level Miami Center
10:52AM 25.8781 -81.7311 North 228 262 3,200 -660 Descending Miami Center
10:53AM 25.9431 -81.7222 North 234 269 2,800 -600 Descending Miami Center
10:54AM 26.0061 -81.7131 North 234 269 2,100 -540 Descending Miami Center
10:55AM 26.0625 -81.7156 358° North 214 246 1,800 -300 Descending Miami Center
10:56AM 26.1136 -81.7475 331° Northwest 190 219 1,500 -420 Descending Miami Center
10:57AM 26.1556 -81.7400 North 150 173 1,000 -540 Descending Miami Center
10:58AM 26.1842 -81.7550 335° Northwest 121 139 500 1,500 Descending Miami Center
10:59AM 26.2153 -81.7633 346° North 121 139 4,000 3,480 Climbing Miami Center